sensor_id;sensor_type;location;lat;lon;timestamp;temperature;humidity
51305;HTU21D;37392;50.964;6.952;2023-07-02T00:02:02;17.09;100.91
51305;HTU21D;37392;50.964;6.952;2023-07-02T00:04:28;17.09;100.91
51305;HTU21D;37392;50.964;6.952;2023-07-02T00:06:54;17.14;100.06
51305;HTU21D;37392;50.964;6.952;2023-07-02T00:09:20;17.13;99.81
51305;HTU21D;37392;50.964;6.952;2023-07-02T00:11:46;17.15;99.66
51305;HTU21D;37392;50.964;6.952;2023-07-02T00:14:11;17.11;98.90
51305;HTU21D;37392;50.964;6.952;2023-07-02T00:16:44;17.10;98.47
51305;HTU21D;37392;50.964;6.952;2023-07-02T00:19:13;17.13;98.03
51305;HTU21D;37392;50.964;6.952;2023-07-02T00:21:39;17.07;98.00
51305;HTU21D;37392;50.964;6.952;2023-07-02T00:24:06;17.06;97.41
51305;HTU21D;37392;50.964;6.952;2023-07-02T00:26:34;17.03;97.29
51305;HTU21D;37392;50.964;6.952;2023-07-02T00:29:00;17.05;96.91
51305;HTU21D;37392;50.964;6.952;2023-07-02T00:31:26;17.05;96.52
51305;HTU21D;37392;50.964;6.952;2023-07-02T00:33:51;17.04;96.38
51305;HTU21D;37392;50.964;6.952;2023-07-02T00:36:17;17.05;96.17
51305;HTU21D;37392;50.964;6.952;2023-07-02T00:38:45;16.96;96.13
51305;HTU21D;37392;50.964;6.952;2023-07-02T00:41:12;16.93;96.18
51305;HTU21D;37392;50.964;6.952;2023-07-02T00:43:38;16.91;96.17
51305;HTU21D;37392;50.964;6.952;2023-07-02T00:46:17;16.89;96.06
51305;HTU21D;37392;50.964;6.952;2023-07-02T00:48:47;16.88;95.82
51305;HTU21D;37392;50.964;6.952;2023-07-02T00:51:22;16.85;95.59
51305;HTU21D;37392;50.964;6.952;2023-07-02T00:53:50;16.82;95.55
51305;HTU21D;37392;50.964;6.952;2023-07-02T00:56:17;16.81;95.51
51305;HTU21D;37392;50.964;6.952;2023-07-02T00:58:46;16.75;95.78
51305;HTU21D;37392;50.964;6.952;2023-07-02T01:01:15;16.71;95.91
51305;HTU21D;37392;50.964;6.952;2023-07-02T01:06:26;16.70;96.00
51305;HTU21D;37392;50.964;6.952;2023-07-02T01:09:00;16.73;95.78
51305;HTU21D;37392;50.964;6.952;2023-07-02T01:11:38;16.75;95.67
51305;HTU21D;37392;50.964;6.952;2023-07-02T01:14:14;16.74;95.38
51305;HTU21D;37392;50.964;6.952;2023-07-02T01:16:42;16.76;95.12
51305;HTU21D;37392;50.964;6.952;2023-07-02T01:19:15;16.76;95.14
51305;HTU21D;37392;50.964;6.952;2023-07-02T01:21:59;16.77;94.48
51305;HTU21D;37392;50.964;6.952;2023-07-02T01:24:25;16.74;94.62
51305;HTU21D;37392;50.964;6.952;2023-07-02T01:26:51;16.82;94.06
51305;HTU21D;37392;50.964;6.952;2023-07-02T01:29:19;16.85;93.68
51305;HTU21D;37392;50.964;6.952;2023-07-02T01:31:46;16.80;93.69
51305;HTU21D;37392;50.964;6.952;2023-07-02T01:34:13;16.85;93.46
51305;HTU21D;37392;50.964;6.952;2023-07-02T01:36:39;16.80;93.46
51305;HTU21D;37392;50.964;6.952;2023-07-02T01:39:05;16.76;93.48
51305;HTU21D;37392;50.964;6.952;2023-07-02T01:41:48;16.77;93.24
51305;HTU21D;37392;50.964;6.952;2023-07-02T01:44:14;16.74;92.94
51305;HTU21D;37392;50.964;6.952;2023-07-02T01:46:40;16.74;92.92
51305;HTU21D;37392;50.964;6.952;2023-07-02T01:49:05;16.71;93.08
51305;HTU21D;37392;50.964;6.952;2023-07-02T01:51:31;16.67;93.00
51305;HTU21D;37392;50.964;6.952;2023-07-02T01:53:57;16.63;92.52
51305;HTU21D;37392;50.964;6.952;2023-07-02T01:56:23;16.64;92.48
51305;HTU21D;37392;50.964;6.952;2023-07-02T01:58:48;16.62;92.71
51305;HTU21D;37392;50.964;6.952;2023-07-02T02:01:14;16.63;92.65
51305;HTU21D;37392;50.964;6.952;2023-07-02T02:03:39;16.64;92.33
51305;HTU21D;37392;50.964;6.952;2023-07-02T02:06:05;16.62;92.39
51305;HTU21D;37392;50.964;6.952;2023-07-02T02:08:30;16.62;92.09
51305;HTU21D;37392;50.964;6.952;2023-07-02T02:10:56;16.63;91.80
51305;HTU21D;37392;50.964;6.952;2023-07-02T02:13:21;16.62;92.00
51305;HTU21D;37392;50.964;6.952;2023-07-02T02:15:47;16.64;91.88
51305;HTU21D;37392;50.964;6.952;2023-07-02T02:18:12;16.63;91.82
51305;HTU21D;37392;50.964;6.952;2023-07-02T02:20:39;16.62;91.82
51305;HTU21D;37392;50.964;6.952;2023-07-02T02:23:05;16.60;91.78
51305;HTU21D;37392;50.964;6.952;2023-07-02T02:25:30;16.63;91.63
51305;HTU21D;37392;50.964;6.952;2023-07-02T02:27:56;16.59;91.55
51305;HTU21D;37392;50.964;6.952;2023-07-02T02:30:21;16.61;91.66
51305;HTU21D;37392;50.964;6.952;2023-07-02T02:32:47;16.64;91.48
51305;HTU21D;37392;50.964;6.952;2023-07-02T02:35:14;16.58;91.54
51305;HTU21D;37392;50.964;6.952;2023-07-02T02:37:40;16.55;91.71
51305;HTU21D;37392;50.964;6.952;2023-07-02T02:40:07;16.52;91.59
51305;HTU21D;37392;50.964;6.952;2023-07-02T02:42:34;16.50;91.78
51305;HTU21D;37392;50.964;6.952;2023-07-02T02:45:01;16.46;91.74
51305;HTU21D;37392;50.964;6.952;2023-07-02T02:47:27;16.35;92.13
51305;HTU21D;37392;50.964;6.952;2023-07-02T02:49:52;16.30;92.34
51305;HTU21D;37392;50.964;6.952;2023-07-02T02:52:18;16.28;92.59
51305;HTU21D;37392;50.964;6.952;2023-07-02T02:54:43;16.26;92.46
51305;HTU21D;37392;50.964;6.952;2023-07-02T02:57:10;16.18;92.47
51305;HTU21D;37392;50.964;6.952;2023-07-02T02:59:36;16.15;92.55
51305;HTU21D;37392;50.964;6.952;2023-07-02T03:02:01;16.11;92.83
51305;HTU21D;37392;50.964;6.952;2023-07-02T03:04:27;16.07;92.94
51305;HTU21D;37392;50.964;6.952;2023-07-02T03:06:53;16.10;92.95
51305;HTU21D;37392;50.964;6.952;2023-07-02T03:09:19;16.04;93.12
51305;HTU21D;37392;50.964;6.952;2023-07-02T03:11:46;16.03;93.29
51305;HTU21D;37392;50.964;6.952;2023-07-02T03:14:12;15.95;93.45
51305;HTU21D;37392;50.964;6.952;2023-07-02T03:16:38;15.92;93.93
51305;HTU21D;37392;50.964;6.952;2023-07-02T03:19:04;15.90;94.17
51305;HTU21D;37392;50.964;6.952;2023-07-02T03:21:29;15.88;94.27
51305;HTU21D;37392;50.964;6.952;2023-07-02T03:23:55;15.82;94.34
51305;HTU21D;37392;50.964;6.952;2023-07-02T03:26:20;15.78;94.44
51305;HTU21D;37392;50.964;6.952;2023-07-02T03:28:47;15.80;94.69
51305;HTU21D;37392;50.964;6.952;2023-07-02T03:31:13;15.81;94.47
51305;HTU21D;37392;50.964;6.952;2023-07-02T03:33:38;15.82;94.45
51305;HTU21D;37392;50.964;6.952;2023-07-02T03:36:04;15.82;94.36
51305;HTU21D;37392;50.964;6.952;2023-07-02T03:38:30;15.75;94.49
51305;HTU21D;37392;50.964;6.952;2023-07-02T03:40:55;15.82;94.63
51305;HTU21D;37392;50.964;6.952;2023-07-02T03:43:21;15.90;94.42
51305;HTU21D;37392;50.964;6.952;2023-07-02T03:45:46;15.96;94.11
51305;HTU21D;37392;50.964;6.952;2023-07-02T03:48:12;16.06;93.72
51305;HTU21D;37392;50.964;6.952;2023-07-02T03:50:37;16.13;93.27
51305;HTU21D;37392;50.964;6.952;2023-07-02T03:53:03;16.14;93.24
51305;HTU21D;37392;50.964;6.952;2023-07-02T03:55:28;16.24;92.94
51305;HTU21D;37392;50.964;6.952;2023-07-02T03:57:54;16.26;92.75
51305;HTU21D;37392;50.964;6.952;2023-07-02T04:00:19;16.31;92.63
51305;HTU21D;37392;50.964;6.952;2023-07-02T04:02:46;16.35;92.46
51305;HTU21D;37392;50.964;6.952;2023-07-02T04:05:11;16.40;92.33
51305;HTU21D;37392;50.964;6.952;2023-07-02T04:07:37;16.44;92.19
51305;HTU21D;37392;50.964;6.952;2023-07-02T04:10:02;16.54;92.01
51305;HTU21D;37392;50.964;6.952;2023-07-02T04:12:28;16.59;91.52
51305;HTU21D;37392;50.964;6.952;2023-07-02T04:14:54;16.66;91.21
51305;HTU21D;37392;50.964;6.952;2023-07-02T04:17:19;16.71;91.15
51305;HTU21D;37392;50.964;6.952;2023-07-02T04:19:45;16.74;90.98
51305;HTU21D;37392;50.964;6.952;2023-07-02T04:22:10;16.82;90.89
51305;HTU21D;37392;50.964;6.952;2023-07-02T04:24:36;16.81;90.65
51305;HTU21D;37392;50.964;6.952;2023-07-02T04:27:01;16.85;90.77
51305;HTU21D;37392;50.964;6.952;2023-07-02T04:29:27;16.92;90.47
51305;HTU21D;37392;50.964;6.952;2023-07-02T04:31:53;16.98;90.19
51305;HTU21D;37392;50.964;6.952;2023-07-02T04:34:18;17.02;90.08
51305;HTU21D;37392;50.964;6.952;2023-07-02T04:36:47;17.09;90.09
51305;HTU21D;37392;50.964;6.952;2023-07-02T04:39:12;17.18;89.79
51305;HTU21D;37392;50.964;6.952;2023-07-02T04:41:38;17.23;89.41
51305;HTU21D;37392;50.964;6.952;2023-07-02T04:44:04;17.28;89.05
51305;HTU21D;37392;50.964;6.952;2023-07-02T04:46:29;17.32;89.13
51305;HTU21D;37392;50.964;6.952;2023-07-02T04:48:55;17.39;88.80
51305;HTU21D;37392;50.964;6.952;2023-07-02T04:51:20;17.43;88.71
51305;HTU21D;37392;50.964;6.952;2023-07-02T04:53:46;17.48;88.76
51305;HTU21D;37392;50.964;6.952;2023-07-02T04:56:12;17.61;88.45
51305;HTU21D;37392;50.964;6.952;2023-07-02T04:58:37;17.74;88.03
51305;HTU21D;37392;50.964;6.952;2023-07-02T05:01:03;17.87;87.45
51305;HTU21D;37392;50.964;6.952;2023-07-02T05:03:30;17.96;87.00
51305;HTU21D;37392;50.964;6.952;2023-07-02T05:05:55;18.00;86.77
51305;HTU21D;37392;50.964;6.952;2023-07-02T05:08:21;18.00;86.67
51305;HTU21D;37392;50.964;6.952;2023-07-02T05:10:47;18.02;86.72
51305;HTU21D;37392;50.964;6.952;2023-07-02T05:13:12;18.04;86.64
51305;HTU21D;37392;50.964;6.952;2023-07-02T05:15:38;18.04;86.64
51305;HTU21D;37392;50.964;6.952;2023-07-02T05:18:03;18.04;86.80
51305;HTU21D;37392;50.964;6.952;2023-07-02T05:20:29;18.05;86.83
51305;HTU21D;37392;50.964;6.952;2023-07-02T05:22:55;18.14;86.74
51305;HTU21D;37392;50.964;6.952;2023-07-02T05:25:20;18.23;86.36
51305;HTU21D;37392;50.964;6.952;2023-07-02T05:27:46;18.39;85.77
51305;HTU21D;37392;50.964;6.952;2023-07-02T05:30:12;18.63;85.21
51305;HTU21D;37392;50.964;6.952;2023-07-02T05:32:38;18.78;84.62
51305;HTU21D;37392;50.964;6.952;2023-07-02T05:35:04;19.01;83.91
51305;HTU21D;37392;50.964;6.952;2023-07-02T05:37:30;19.21;83.07
51305;HTU21D;37392;50.964;6.952;2023-07-02T05:39:56;19.40;82.46
51305;HTU21D;37392;50.964;6.952;2023-07-02T05:42:21;19.58;81.95
51305;HTU21D;37392;50.964;6.952;2023-07-02T05:44:47;19.86;81.08
51305;HTU21D;37392;50.964;6.952;2023-07-02T05:47:12;20.28;79.89
51305;HTU21D;37392;50.964;6.952;2023-07-02T05:49:38;20.66;78.67
51305;HTU21D;37392;50.964;6.952;2023-07-02T05:52:03;21.31;77.09
51305;HTU21D;37392;50.964;6.952;2023-07-02T05:54:29;21.62;75.13
51305;HTU21D;37392;50.964;6.952;2023-07-02T05:56:55;21.64;74.30
51305;HTU21D;37392;50.964;6.952;2023-07-02T05:59:20;21.65;73.96
51305;HTU21D;37392;50.964;6.952;2023-07-02T06:01:46;21.81;74.57
51305;HTU21D;37392;50.964;6.952;2023-07-02T06:04:11;22.22;73.09
51305;HTU21D;37392;50.964;6.952;2023-07-02T06:06:37;22.82;71.34
51305;HTU21D;37392;50.964;6.952;2023-07-02T06:09:02;22.84;70.51
51305;HTU21D;37392;50.964;6.952;2023-07-02T06:11:29;22.90;70.25
51305;HTU21D;37392;50.964;6.952;2023-07-02T06:13:54;23.17;69.61
51305;HTU21D;37392;50.964;6.952;2023-07-02T06:16:20;23.46;68.36
51305;HTU21D;37392;50.964;6.952;2023-07-02T06:18:46;23.27;68.25
51305;HTU21D;37392;50.964;6.952;2023-07-02T06:21:11;22.96;69.23
51305;HTU21D;37392;50.964;6.952;2023-07-02T06:23:41;22.92;69.44
51305;HTU21D;37392;50.964;6.952;2023-07-02T06:26:07;23.03;68.96
51305;HTU21D;37392;50.964;6.952;2023-07-02T06:28:33;23.10;68.46
51305;HTU21D;37392;50.964;6.952;2023-07-02T06:30:58;23.13;68.09
51305;HTU21D;37392;50.964;6.952;2023-07-02T06:33:25;23.11;68.57
51305;HTU21D;37392;50.964;6.952;2023-07-02T06:35:51;23.17;68.64
51305;HTU21D;37392;50.964;6.952;2023-07-02T06:38:16;23.30;67.88
51305;HTU21D;37392;50.964;6.952;2023-07-02T06:40:42;23.83;66.92
51305;HTU21D;37392;50.964;6.952;2023-07-02T06:43:07;24.83;65.04
51305;HTU21D;37392;50.964;6.952;2023-07-02T06:45:33;25.87;61.12
51305;HTU21D;37392;50.964;6.952;2023-07-02T06:47:58;26.50;58.70
51305;HTU21D;37392;50.964;6.952;2023-07-02T06:50:24;26.25;58.75
51305;HTU21D;37392;50.964;6.952;2023-07-02T06:52:49;25.90;59.10
51305;HTU21D;37392;50.964;6.952;2023-07-02T06:55:15;25.64;59.38
51305;HTU21D;37392;50.964;6.952;2023-07-02T06:57:44;25.00;60.89
51305;HTU21D;37392;50.964;6.952;2023-07-02T07:00:12;24.63;61.89
51305;HTU21D;37392;50.964;6.952;2023-07-02T07:02:38;24.41;62.77
51305;HTU21D;37392;50.964;6.952;2023-07-02T07:05:04;24.28;63.31
51305;HTU21D;37392;50.964;6.952;2023-07-02T07:07:30;24.33;63.73
51305;HTU21D;37392;50.964;6.952;2023-07-02T07:09:57;24.70;62.79
51305;HTU21D;37392;50.964;6.952;2023-07-02T07:12:22;25.08;61.76
51305;HTU21D;37392;50.964;6.952;2023-07-02T07:14:48;25.07;61.28
51305;HTU21D;37392;50.964;6.952;2023-07-02T07:17:13;24.95;61.36
51305;HTU21D;37392;50.964;6.952;2023-07-02T07:19:39;24.93;60.21
51305;HTU21D;37392;50.964;6.952;2023-07-02T07:22:04;24.83;60.20
51305;HTU21D;37392;50.964;6.952;2023-07-02T07:24:30;24.94;60.84
51305;HTU21D;37392;50.964;6.952;2023-07-02T07:26:55;25.15;60.01
51305;HTU21D;37392;50.964;6.952;2023-07-02T07:29:22;25.24;59.88
51305;HTU21D;37392;50.964;6.952;2023-07-02T07:31:47;25.10;60.25
51305;HTU21D;37392;50.964;6.952;2023-07-02T07:34:13;25.15;59.38
51305;HTU21D;37392;50.964;6.952;2023-07-02T07:36:38;24.88;59.67
51305;HTU21D;37392;50.964;6.952;2023-07-02T07:39:04;24.85;59.80
51305;HTU21D;37392;50.964;6.952;2023-07-02T07:41:29;24.74;59.34
51305;HTU21D;37392;50.964;6.952;2023-07-02T07:43:55;24.91;58.89
51305;HTU21D;37392;50.964;6.952;2023-07-02T07:46:21;25.39;58.37
51305;HTU21D;37392;50.964;6.952;2023-07-02T07:48:46;26.08;56.50
51305;HTU21D;37392;50.964;6.952;2023-07-02T07:51:12;26.83;55.11
51305;HTU21D;37392;50.964;6.952;2023-07-02T07:53:38;27.08;53.06
51305;HTU21D;37392;50.964;6.952;2023-07-02T07:56:05;27.63;52.19
51305;HTU21D;37392;50.964;6.952;2023-07-02T07:58:30;27.93;50.95
51305;HTU21D;37392;50.964;6.952;2023-07-02T08:00:58;28.15;49.90
51305;HTU21D;37392;50.964;6.952;2023-07-02T08:03:23;28.44;48.89
51305;HTU21D;37392;50.964;6.952;2023-07-02T08:05:49;28.19;49.14
51305;HTU21D;37392;50.964;6.952;2023-07-02T08:08:15;27.78;49.31
51305;HTU21D;37392;50.964;6.952;2023-07-02T08:10:40;27.40;50.01
51305;HTU21D;37392;50.964;6.952;2023-07-02T08:13:07;27.31;50.72
51305;HTU21D;37392;50.964;6.952;2023-07-02T08:15:33;27.64;49.69
51305;HTU21D;37392;50.964;6.952;2023-07-02T08:17:59;27.59;49.52
51305;HTU21D;37392;50.964;6.952;2023-07-02T08:20:25;27.47;49.76
51305;HTU21D;37392;50.964;6.952;2023-07-02T08:22:51;27.16;50.84
51305;HTU21D;37392;50.964;6.952;2023-07-02T08:25:17;27.16;51.57
51305;HTU21D;37392;50.964;6.952;2023-07-02T08:27:44;27.13;51.85
51305;HTU21D;37392;50.964;6.952;2023-07-02T08:30:10;27.36;51.43
51305;HTU21D;37392;50.964;6.952;2023-07-02T08:32:36;27.51;50.98
51305;HTU21D;37392;50.964;6.952;2023-07-02T08:35:01;27.73;49.96
51305;HTU21D;37392;50.964;6.952;2023-07-02T08:37:27;27.84;49.45
51305;HTU21D;37392;50.964;6.952;2023-07-02T08:39:53;27.87;49.48
51305;HTU21D;37392;50.964;6.952;2023-07-02T08:42:19;27.67;49.99
51305;HTU21D;37392;50.964;6.952;2023-07-02T08:44:53;27.72;49.01
51305;HTU21D;37392;50.964;6.952;2023-07-02T08:47:19;28.13;48.26
51305;HTU21D;37392;50.964;6.952;2023-07-02T08:49:44;28.62;47.36
51305;HTU21D;37392;50.964;6.952;2023-07-02T08:52:10;29.20;46.64
51305;HTU21D;37392;50.964;6.952;2023-07-02T08:54:36;29.57;45.73
51305;HTU21D;37392;50.964;6.952;2023-07-02T08:57:01;30.02;44.29
51305;HTU21D;37392;50.964;6.952;2023-07-02T08:59:30;29.94;44.26
51305;HTU21D;37392;50.964;6.952;2023-07-02T09:01:56;29.75;44.13
51305;HTU21D;37392;50.964;6.952;2023-07-02T09:04:23;29.42;44.62
51305;HTU21D;37392;50.964;6.952;2023-07-02T09:07:02;28.86;45.73
51305;HTU21D;37392;50.964;6.952;2023-07-02T09:09:29;28.42;46.76
51305;HTU21D;37392;50.964;6.952;2023-07-02T09:11:55;28.65;46.05
51305;HTU21D;37392;50.964;6.952;2023-07-02T09:14:28;28.94;45.45
51305;HTU21D;37392;50.964;6.952;2023-07-02T09:17:08;29.27;44.90
51305;HTU21D;37392;50.964;6.952;2023-07-02T09:19:35;29.39;44.74
51305;HTU21D;37392;50.964;6.952;2023-07-02T09:22:02;29.45;44.58
51305;HTU21D;37392;50.964;6.952;2023-07-02T09:24:29;29.75;44.22
51305;HTU21D;37392;50.964;6.952;2023-07-02T09:26:58;30.66;42.82
51305;HTU21D;37392;50.964;6.952;2023-07-02T09:29:27;31.21;41.64
51305;HTU21D;37392;50.964;6.952;2023-07-02T09:31:55;30.53;42.03
51305;HTU21D;37392;50.964;6.952;2023-07-02T09:34:33;30.08;42.84
51305;HTU21D;37392;50.964;6.952;2023-07-02T09:37:01;29.50;44.02
51305;HTU21D;37392;50.964;6.952;2023-07-02T09:39:31;29.16;44.64
51305;HTU21D;37392;50.964;6.952;2023-07-02T09:42:00;29.01;45.19
51305;HTU21D;37392;50.964;6.952;2023-07-02T09:44:32;29.72;44.30
51305;HTU21D;37392;50.964;6.952;2023-07-02T09:47:08;30.11;43.26
51305;HTU21D;37392;50.964;6.952;2023-07-02T09:52:34;29.96;43.51
51305;HTU21D;37392;50.964;6.952;2023-07-02T09:55:00;30.15;43.10
51305;HTU21D;37392;50.964;6.952;2023-07-02T09:57:26;30.37;42.75
51305;HTU21D;37392;50.964;6.952;2023-07-02T09:59:53;30.31;43.01
51305;HTU21D;37392;50.964;6.952;2023-07-02T10:02:19;29.94;43.55
51305;HTU21D;37392;50.964;6.952;2023-07-02T10:04:46;30.34;43.58
51305;HTU21D;37392;50.964;6.952;2023-07-02T10:07:24;30.62;43.19
51305;HTU21D;37392;50.964;6.952;2023-07-02T10:09:51;31.73;41.55
51305;HTU21D;37392;50.964;6.952;2023-07-02T10:15:06;32.13;40.10
51305;HTU21D;37392;50.964;6.952;2023-07-02T10:17:33;31.81;40.62
51305;HTU21D;37392;50.964;6.952;2023-07-02T10:20:05;31.22;40.59
51305;HTU21D;37392;50.964;6.952;2023-07-02T10:22:45;30.69;41.26
51305;HTU21D;37392;50.964;6.952;2023-07-02T10:25:26;30.12;41.77
51305;HTU21D;37392;50.964;6.952;2023-07-02T10:28:00;29.83;42.57
51305;HTU21D;37392;50.964;6.952;2023-07-02T10:30:35;29.58;43.16
51305;HTU21D;37392;50.964;6.952;2023-07-02T10:33:10;29.05;43.46
51305;HTU21D;37392;50.964;6.952;2023-07-02T10:35:37;28.77;43.54
51305;HTU21D;37392;50.964;6.952;2023-07-02T10:38:04;28.55;44.45
51305;HTU21D;37392;50.964;6.952;2023-07-02T10:40:33;28.70;44.37
51305;HTU21D;37392;50.964;6.952;2023-07-02T10:42:59;28.74;44.55
51305;HTU21D;37392;50.964;6.952;2023-07-02T10:45:32;28.82;44.48
51305;HTU21D;37392;50.964;6.952;2023-07-02T10:47:58;28.68;44.74
51305;HTU21D;37392;50.964;6.952;2023-07-02T10:50:24;28.68;44.90
51305;HTU21D;37392;50.964;6.952;2023-07-02T10:52:51;28.50;45.25
51305;HTU21D;37392;50.964;6.952;2023-07-02T10:55:20;28.59;45.49
51305;HTU21D;37392;50.964;6.952;2023-07-02T10:57:47;28.71;45.30
51305;HTU21D;37392;50.964;6.952;2023-07-02T11:00:16;28.47;45.39
51305;HTU21D;37392;50.964;6.952;2023-07-02T11:02:42;27.99;46.27
51305;HTU21D;37392;50.964;6.952;2023-07-02T11:05:08;27.42;47.37
51305;HTU21D;37392;50.964;6.952;2023-07-02T11:07:41;27.26;47.85
51305;HTU21D;37392;50.964;6.952;2023-07-02T11:10:08;27.41;47.28
51305;HTU21D;37392;50.964;6.952;2023-07-02T11:12:35;27.46;46.70
51305;HTU21D;37392;50.964;6.952;2023-07-02T11:15:15;27.58;46.67
51305;HTU21D;37392;50.964;6.952;2023-07-02T11:17:43;27.24;46.54
51305;HTU21D;37392;50.964;6.952;2023-07-02T11:20:09;27.11;47.31
51305;HTU21D;37392;50.964;6.952;2023-07-02T11:22:37;27.35;47.47
51305;HTU21D;37392;50.964;6.952;2023-07-02T11:25:15;28.54;46.09
51305;HTU21D;37392;50.964;6.952;2023-07-02T11:27:43;29.63;43.25
51305;HTU21D;37392;50.964;6.952;2023-07-02T11:30:10;29.62;42.67
51305;HTU21D;37392;50.964;6.952;2023-07-02T11:32:53;29.32;43.17
51305;HTU21D;37392;50.964;6.952;2023-07-02T11:35:20;29.15;43.51
51305;HTU21D;37392;50.964;6.952;2023-07-02T11:37:47;28.94;44.09
51305;HTU21D;37392;50.964;6.952;2023-07-02T11:40:14;28.85;44.73
51305;HTU21D;37392;50.964;6.952;2023-07-02T11:42:42;28.87;44.70
51305;HTU21D;37392;50.964;6.952;2023-07-02T11:45:09;28.82;44.94
51305;HTU21D;37392;50.964;6.952;2023-07-02T11:47:35;28.53;45.37
51305;HTU21D;37392;50.964;6.952;2023-07-02T11:50:00;28.38;45.99
51305;HTU21D;37392;50.964;6.952;2023-07-02T11:52:26;28.02;46.68
51305;HTU21D;37392;50.964;6.952;2023-07-02T11:54:52;27.74;46.47
51305;HTU21D;37392;50.964;6.952;2023-07-02T11:57:17;27.74;45.91
51305;HTU21D;37392;50.964;6.952;2023-07-02T11:59:43;27.91;44.80
51305;HTU21D;37392;50.964;6.952;2023-07-02T12:02:08;27.76;44.49
51305;HTU21D;37392;50.964;6.952;2023-07-02T12:04:34;27.43;45.08
51305;HTU21D;37392;50.964;6.952;2023-07-02T12:07:00;27.34;45.57
51305;HTU21D;37392;50.964;6.952;2023-07-02T12:09:28;27.20;45.94
51305;HTU21D;37392;50.964;6.952;2023-07-02T12:11:54;27.36;46.14
51305;HTU21D;37392;50.964;6.952;2023-07-02T12:14:20;27.60;45.46
51305;HTU21D;37392;50.964;6.952;2023-07-02T12:16:45;27.87;44.02
51305;HTU21D;37392;50.964;6.952;2023-07-02T12:19:11;28.15;43.20
51305;HTU21D;37392;50.964;6.952;2023-07-02T12:21:36;28.31;42.93
51305;HTU21D;37392;50.964;6.952;2023-07-02T12:24:02;28.47;42.29
51305;HTU21D;37392;50.964;6.952;2023-07-02T12:26:28;28.30;41.33
51305;HTU21D;37392;50.964;6.952;2023-07-02T12:28:54;28.35;41.32
51305;HTU21D;37392;50.964;6.952;2023-07-02T12:31:20;28.47;40.46
51305;HTU21D;37392;50.964;6.952;2023-07-02T12:33:45;28.64;40.30
51305;HTU21D;37392;50.964;6.952;2023-07-02T12:36:11;28.63;39.88
51305;HTU21D;37392;50.964;6.952;2023-07-02T12:38:37;28.98;39.41
51305;HTU21D;37392;50.964;6.952;2023-07-02T12:41:03;29.04;39.30
51305;HTU21D;37392;50.964;6.952;2023-07-02T12:43:28;29.08;38.80
51305;HTU21D;37392;50.964;6.952;2023-07-02T12:45:54;29.06;38.63
51305;HTU21D;37392;50.964;6.952;2023-07-02T12:48:19;29.08;38.41
51305;HTU21D;37392;50.964;6.952;2023-07-02T12:50:56;28.94;38.59
51305;HTU21D;37392;50.964;6.952;2023-07-02T12:53:24;28.86;38.94
51305;HTU21D;37392;50.964;6.952;2023-07-02T12:55:50;28.76;39.27
51305;HTU21D;37392;50.964;6.952;2023-07-02T12:58:15;28.58;39.35
51305;HTU21D;37392;50.964;6.952;2023-07-02T13:00:41;28.80;39.81
51305;HTU21D;37392;50.964;6.952;2023-07-02T13:03:11;28.75;39.65
51305;HTU21D;37392;50.964;6.952;2023-07-02T13:05:38;28.62;40.05
51305;HTU21D;37392;50.964;6.952;2023-07-02T13:08:05;28.50;40.36
51305;HTU21D;37392;50.964;6.952;2023-07-02T13:10:32;28.27;40.78
51305;HTU21D;37392;50.964;6.952;2023-07-02T13:12:59;28.21;41.15
51305;HTU21D;37392;50.964;6.952;2023-07-02T13:15:25;28.26;41.15
51305;HTU21D;37392;50.964;6.952;2023-07-02T13:17:50;28.01;41.78
51305;HTU21D;37392;50.964;6.952;2023-07-02T13:20:16;27.91;41.94
51305;HTU21D;37392;50.964;6.952;2023-07-02T13:22:42;27.91;42.26
51305;HTU21D;37392;50.964;6.952;2023-07-02T13:25:08;27.90;42.23
51305;HTU21D;37392;50.964;6.952;2023-07-02T13:27:33;27.79;42.70
51305;HTU21D;37392;50.964;6.952;2023-07-02T13:29:59;27.63;42.91
51305;HTU21D;37392;50.964;6.952;2023-07-02T13:32:25;27.61;43.32
51305;HTU21D;37392;50.964;6.952;2023-07-02T13:34:50;27.63;43.64
51305;HTU21D;37392;50.964;6.952;2023-07-02T13:37:16;27.79;43.74
51305;HTU21D;37392;50.964;6.952;2023-07-02T13:39:46;27.88;43.45
51305;HTU21D;37392;50.964;6.952;2023-07-02T13:42:12;28.05;43.78
51305;HTU21D;37392;50.964;6.952;2023-07-02T13:44:37;28.01;43.20
51305;HTU21D;37392;50.964;6.952;2023-07-02T13:47:03;27.85;42.88
51305;HTU21D;37392;50.964;6.952;2023-07-02T13:49:30;27.80;42.97
51305;HTU21D;37392;50.964;6.952;2023-07-02T13:51:56;27.81;43.05
51305;HTU21D;37392;50.964;6.952;2023-07-02T13:54:21;27.93;42.93
51305;HTU21D;37392;50.964;6.952;2023-07-02T13:56:47;27.91;42.65
51305;HTU21D;37392;50.964;6.952;2023-07-02T13:59:14;27.79;43.08
51305;HTU21D;37392;50.964;6.952;2023-07-02T14:01:40;27.65;43.62
51305;HTU21D;37392;50.964;6.952;2023-07-02T14:04:05;27.58;43.76
51305;HTU21D;37392;50.964;6.952;2023-07-02T14:06:31;27.68;44.06
51305;HTU21D;37392;50.964;6.952;2023-07-02T14:08:57;27.61;43.57
51305;HTU21D;37392;50.964;6.952;2023-07-02T14:11:24;27.45;43.87
51305;HTU21D;37392;50.964;6.952;2023-07-02T14:13:50;27.36;44.03
51305;HTU21D;37392;50.964;6.952;2023-07-02T14:16:15;27.30;44.54
51305;HTU21D;37392;50.964;6.952;2023-07-02T14:18:41;27.40;44.65
51305;HTU21D;37392;50.964;6.952;2023-07-02T14:21:07;27.29;45.00
51305;HTU21D;37392;50.964;6.952;2023-07-02T14:23:32;27.38;45.46
51305;HTU21D;37392;50.964;6.952;2023-07-02T14:25:58;27.58;44.64
51305;HTU21D;37392;50.964;6.952;2023-07-02T14:28:24;27.61;44.54
51305;HTU21D;37392;50.964;6.952;2023-07-02T14:31:01;27.54;44.35
51305;HTU21D;37392;50.964;6.952;2023-07-02T14:33:29;27.36;44.62
51305;HTU21D;37392;50.964;6.952;2023-07-02T14:35:57;26.99;45.28
51305;HTU21D;37392;50.964;6.952;2023-07-02T14:38:23;26.90;45.54
51305;HTU21D;37392;50.964;6.952;2023-07-02T14:40:49;26.91;45.43
51305;HTU21D;37392;50.964;6.952;2023-07-02T14:43:16;26.95;45.38
51305;HTU21D;37392;50.964;6.952;2023-07-02T14:45:53;27.26;45.12
51305;HTU21D;37392;50.964;6.952;2023-07-02T14:48:20;27.54;44.64
51305;HTU21D;37392;50.964;6.952;2023-07-02T14:50:58;27.51;44.09
51305;HTU21D;37392;50.964;6.952;2023-07-02T14:53:26;27.31;44.16
51305;HTU21D;37392;50.964;6.952;2023-07-02T14:55:57;27.14;44.82
51305;HTU21D;37392;50.964;6.952;2023-07-02T14:58:24;27.06;45.45
51305;HTU21D;37392;50.964;6.952;2023-07-02T15:00:53;26.70;45.51
51305;HTU21D;37392;50.964;6.952;2023-07-02T15:03:22;26.42;46.50
51305;HTU21D;37392;50.964;6.952;2023-07-02T15:05:49;26.18;47.13
51305;HTU21D;37392;50.964;6.952;2023-07-02T15:08:16;26.20;47.12
51305;HTU21D;37392;50.964;6.952;2023-07-02T15:10:46;26.42;47.06
51305;HTU21D;37392;50.964;6.952;2023-07-02T15:13:12;26.65;46.80
51305;HTU21D;37392;50.964;6.952;2023-07-02T15:15:38;26.80;45.66
51305;HTU21D;37392;50.964;6.952;2023-07-02T15:18:07;26.85;45.36
51305;HTU21D;37392;50.964;6.952;2023-07-02T15:20:33;26.94;45.89
51305;HTU21D;37392;50.964;6.952;2023-07-02T15:22:59;26.96;45.60